This is the latest recevied weather packets stored in our database for station/object EB2EMZ-W. If no packets are shown the sender has not sent any weather packets the latest 10 day(s).
| Time | Temp. | Humidity | Pressure | Rain* | Wind** | Luminosity | Snow |
|---|---|---|---|---|---|---|---|
| 1777904163 | 17.22° C | 53% | 997 hPa | 0 mm | - | - | - |
| 1777902343 | 18.89° C | 43% | 996 hPa | 0 mm | - | - | - |
| 1777900524 | 17.78° C | 46% | 996 hPa | 0 mm | - | - | - |
| 1777898705 | 17.22° C | 47% | 996 hPa | 0 mm | - | - | - |
| 1777896885 | 16.11° C | 53% | 996 hPa | 0 mm | - | - | - |
| 1777895066 | 15.56° C | 54% | 997 hPa | 0 mm | - | - | - |
| 1777893246 | 15.56° C | 55% | 997 hPa | 0 mm | - | - | - |
| 1777891426 | 15.56° C | 59% | 997 hPa | 0 mm | - | - | - |
| 1777889607 | 16.11° C | 59% | 997 hPa | 0 mm | - | - | - |
| 1777887786 | 15° C | 70% | 997 hPa | 0 mm | - | - | - |
| 1777885967 | 15° C | 73% | 997 hPa | 1.02 mm | - | - | - |
| 1777884146 | 14.44° C | 76% | 996.2 hPa | 6.1 mm | - | - | - |
| 1777882327 | 13.33° C | 83% | 997 hPa | 8.89 mm | - | - | - |
| 1777880507 | 13.33° C | 82% | 997 hPa | 7.87 mm | - | - | - |
| 1777878687 | 14.44° C | 84% | 996 hPa | 7.11 mm | - | - | - |
| 1777876867 | 14.44° C | 84% | 996 hPa | 3.05 mm | - | - | - |
| 1777875047 | 14.44° C | 83% | 996 hPa | 0 mm | - | - | - |
| 1777873228 | 14.44° C | 83% | 996 hPa | 0 mm | - | - | - |
| 1777871408 | 14.44° C | 84% | 996 hPa | 0 mm | - | - | - |
| 1777869588 | 14.44° C | 84% | 996 hPa | 0 mm | - | - | - |
| 1777867766 | 14.44° C | 85% | 996 hPa | 0 mm | - | - | - |
| 1777865947 | 14.44° C | 84% | 996 hPa | 0 mm | - | - | - |
| 1777864127 | 15° C | 84% | 997 hPa | 0 mm | - | - | - |
| 1777862307 | 14.44° C | 84% | 996 hPa | 0 mm | - | - | - |
| 1777860487 | 15° C | 83% | 997 hPa | 0 mm | - | - | - |
* Rain latest hour (hover to see other rain measurements)
** Current wind speed in m/s (hover to see current wind gust speed)